sensor_id;sensor_type;location;lat;lon;timestamp;pressure;altitude;pressure_sealevel;temperature;humidity
59419;BME280;45224;50.904;6.038;2023-04-05T00:00:49;100575.25;;;5.22;51.97
59419;BME280;45224;50.904;6.038;2023-04-05T00:02:20;100570.88;;;5.19;51.42
59419;BME280;45224;50.904;6.038;2023-04-05T00:03:51;100570.78;;;5.16;51.58
59419;BME280;45224;50.904;6.038;2023-04-05T00:05:23;100553.47;;;5.09;51.95
59419;BME280;45224;50.904;6.038;2023-04-05T00:07:00;100558.59;;;5.09;51.61
59419;BME280;45224;50.904;6.038;2023-04-05T00:08:31;100558.59;;;5.09;52.29
59419;BME280;45224;50.904;6.038;2023-04-05T00:10:02;100566.22;;;5.07;52.21
59419;BME280;45224;50.904;6.038;2023-04-05T00:11:32;100563.59;;;5.06;51.75
59419;BME280;45224;50.904;6.038;2023-04-05T00:13:03;100564.41;;;5.05;52.50
59419;BME280;45224;50.904;6.038;2023-04-05T00:14:33;100560.94;;;5.03;51.84
59419;BME280;45224;50.904;6.038;2023-04-05T00:16:04;100546.16;;;4.96;51.91
59419;BME280;45224;50.904;6.038;2023-04-05T00:17:35;100558.25;;;5.00;52.17
59419;BME280;45224;50.904;6.038;2023-04-05T00:19:06;100552.16;;;4.96;52.02
59419;BME280;45224;50.904;6.038;2023-04-05T00:20:37;100546.94;;;4.93;51.73
59419;BME280;45224;50.904;6.038;2023-04-05T00:22:07;100550.34;;;4.93;52.30
59419;BME280;45224;50.904;6.038;2023-04-05T00:23:40;100542.59;;;4.92;52.07
59419;BME280;45224;50.904;6.038;2023-04-05T00:25:11;100553.69;;;4.91;52.36
59419;BME280;45224;50.904;6.038;2023-04-05T00:26:42;100541.63;;;4.88;52.19
59419;BME280;45224;50.904;6.038;2023-04-05T00:28:15;100539.94;;;4.89;52.36
59419;BME280;45224;50.904;6.038;2023-04-05T00:29:46;100539.88;;;4.87;52.47
59419;BME280;45224;50.904;6.038;2023-04-05T00:31:17;100535.50;;;4.83;52.74
59419;BME280;45224;50.904;6.038;2023-04-05T00:32:48;100534.66;;;4.84;52.34
59419;BME280;45224;50.904;6.038;2023-04-05T00:34:21;100531.97;;;4.81;52.70
59419;BME280;45224;50.904;6.038;2023-04-05T00:35:52;100530.13;;;4.77;52.55
59419;BME280;45224;50.904;6.038;2023-04-05T00:37:22;100532.59;;;4.74;52.54
59419;BME280;45224;50.904;6.038;2023-04-05T00:38:53;100529.91;;;4.71;52.95
59419;BME280;45224;50.904;6.038;2023-04-05T00:40:24;100519.44;;;4.65;53.08
59419;BME280;45224;50.904;6.038;2023-04-05T00:41:54;100531.69;;;4.72;52.72
59419;BME280;45224;50.904;6.038;2023-04-05T00:43:25;100533.22;;;4.67;53.18
59419;BME280;45224;50.904;6.038;2023-04-05T00:44:56;100536.63;;;4.67;52.83
59419;BME280;45224;50.904;6.038;2023-04-05T00:46:26;100531.34;;;4.63;52.87
59419;BME280;45224;50.904;6.038;2023-04-05T00:47:57;100533.91;;;4.63;53.32
59419;BME280;45224;50.904;6.038;2023-04-05T00:49:29;100533.78;;;4.60;53.40
59419;BME280;45224;50.904;6.038;2023-04-05T00:51:01;100531.09;;;4.56;52.70
59419;BME280;45224;50.904;6.038;2023-04-05T00:52:32;100532.00;;;4.57;52.93
59419;BME280;45224;50.904;6.038;2023-04-05T00:54:04;100526.78;;;4.54;54.42
59419;BME280;45224;50.904;6.038;2023-04-05T00:55:35;100527.53;;;4.51;53.05
59419;BME280;45224;50.904;6.038;2023-04-05T00:57:05;100531.00;;;4.53;53.33
59419;BME280;45224;50.904;6.038;2023-04-05T00:58:37;100525.88;;;4.53;53.09
59419;BME280;45224;50.904;6.038;2023-04-05T01:00:11;100524.97;;;4.51;52.63
59419;BME280;45224;50.904;6.038;2023-04-05T01:01:42;100522.34;;;4.50;53.34
59419;BME280;45224;50.904;6.038;2023-04-05T01:03:13;100523.19;;;4.50;53.14
59419;BME280;45224;50.904;6.038;2023-04-05T01:04:46;100513.69;;;4.46;53.09
59419;BME280;45224;50.904;6.038;2023-04-05T01:06:58;100520.53;;;4.47;54.19
59419;BME280;45224;50.904;6.038;2023-04-05T01:08:44;100504.13;;;4.42;53.71
59419;BME280;45224;50.904;6.038;2023-04-05T01:10:21;100508.34;;;4.40;53.32
59419;BME280;45224;50.904;6.038;2023-04-05T01:12:00;100506.53;;;4.37;53.62
59419;BME280;45224;50.904;6.038;2023-04-05T01:13:32;100512.53;;;4.38;53.64
59419;BME280;45224;50.904;6.038;2023-04-05T01:15:03;100508.09;;;4.34;53.24
59419;BME280;45224;50.904;6.038;2023-04-05T01:16:34;100507.28;;;4.35;53.84
59419;BME280;45224;50.904;6.038;2023-04-05T01:18:04;100500.19;;;4.28;53.87
59419;BME280;45224;50.904;6.038;2023-04-05T01:19:35;100507.88;;;4.28;54.00
59419;BME280;45224;50.904;6.038;2023-04-05T01:23:11;100505.91;;;4.20;54.59
59419;BME280;45224;50.904;6.038;2023-04-05T01:26:39;100505.69;;;4.14;54.69
59419;BME280;45224;50.904;6.038;2023-04-05T01:30:19;100495.88;;;4.02;55.34
59419;BME280;45224;50.904;6.038;2023-04-05T01:31:59;100498.38;;;4.01;55.29
59419;BME280;45224;50.904;6.038;2023-04-05T01:33:58;100508.47;;;3.98;56.20
59419;BME280;45224;50.904;6.038;2023-04-05T01:35:54;100506.59;;;3.94;55.86
59419;BME280;45224;50.904;6.038;2023-04-05T01:37:30;100515.72;;;3.87;55.70
59419;BME280;45224;50.904;6.038;2023-04-05T01:39:04;100509.63;;;3.83;55.83
59419;BME280;45224;50.904;6.038;2023-04-05T01:40:35;100510.22;;;3.76;56.53
59419;BME280;45224;50.904;6.038;2023-04-05T01:42:07;100510.91;;;3.72;56.61
59419;BME280;45224;50.904;6.038;2023-04-05T01:43:37;100513.34;;;3.69;56.92
59419;BME280;45224;50.904;6.038;2023-04-05T01:45:08;100513.16;;;3.64;57.23
59419;BME280;45224;50.904;6.038;2023-04-05T01:46:39;100496.75;;;3.59;56.98
59419;BME280;45224;50.904;6.038;2023-04-05T01:48:10;100503.44;;;3.56;57.11
59419;BME280;45224;50.904;6.038;2023-04-05T01:49:40;100509.41;;;3.56;57.03
59419;BME280;45224;50.904;6.038;2023-04-05T01:51:11;100512.78;;;3.55;57.11
59419;BME280;45224;50.904;6.038;2023-04-05T01:52:42;100506.69;;;3.52;57.38
59419;BME280;45224;50.904;6.038;2023-04-05T01:54:12;100511.91;;;3.55;56.73
59419;BME280;45224;50.904;6.038;2023-04-05T01:55:43;100512.03;;;3.58;55.91
59419;BME280;45224;50.904;6.038;2023-04-05T01:57:13;100499.19;;;3.56;55.79
59419;BME280;45224;50.904;6.038;2023-04-05T01:58:43;100507.97;;;3.63;55.81
59419;BME280;45224;50.904;6.038;2023-04-05T02:00:14;100508.94;;;3.65;55.35
59419;BME280;45224;50.904;6.038;2023-04-05T02:01:45;100503.97;;;3.70;55.20
59419;BME280;45224;50.904;6.038;2023-04-05T02:03:15;100509.16;;;3.71;55.21
59419;BME280;45224;50.904;6.038;2023-04-05T02:04:46;100500.53;;;3.69;55.31
59419;BME280;45224;50.904;6.038;2023-04-05T02:06:16;100507.41;;;3.70;56.05
59419;BME280;45224;50.904;6.038;2023-04-05T02:07:47;100509.91;;;3.69;55.67
59419;BME280;45224;50.904;6.038;2023-04-05T02:09:17;100509.84;;;3.67;56.21
59419;BME280;45224;50.904;6.038;2023-04-05T02:10:51;100502.06;;;3.64;56.98
59419;BME280;45224;50.904;6.038;2023-04-05T02:12:22;100498.47;;;3.59;56.40
59419;BME280;45224;50.904;6.038;2023-04-05T02:13:52;100505.16;;;3.57;56.87
59419;BME280;45224;50.904;6.038;2023-04-05T02:15:23;100499.97;;;3.54;56.86
59419;BME280;45224;50.904;6.038;2023-04-05T02:16:53;100496.31;;;3.48;57.32
59419;BME280;45224;50.904;6.038;2023-04-05T02:18:25;100502.19;;;3.46;57.38
59419;BME280;45224;50.904;6.038;2023-04-05T02:20:02;100511.53;;;3.45;57.50
59419;BME280;45224;50.904;6.038;2023-04-05T02:21:36;100496.91;;;3.41;57.37
59419;BME280;45224;50.904;6.038;2023-04-05T02:23:07;100499.47;;;3.41;57.06
59419;BME280;45224;50.904;6.038;2023-04-05T02:24:37;100501.94;;;3.40;57.10
59419;BME280;45224;50.904;6.038;2023-04-05T02:26:08;100502.63;;;3.36;57.91
59419;BME280;45224;50.904;6.038;2023-04-05T02:27:39;100491.34;;;3.31;57.61
59419;BME280;45224;50.904;6.038;2023-04-05T02:29:10;100495.59;;;3.30;57.62
59419;BME280;45224;50.904;6.038;2023-04-05T02:30:41;100492.97;;;3.28;57.74
59419;BME280;45224;50.904;6.038;2023-04-05T02:32:14;100491.22;;;3.27;57.90
59419;BME280;45224;50.904;6.038;2023-04-05T02:33:45;100490.22;;;3.24;57.84
59419;BME280;45224;50.904;6.038;2023-04-05T02:35:16;100493.59;;;3.23;58.71
59419;BME280;45224;50.904;6.038;2023-04-05T02:36:50;100501.19;;;3.21;58.67
59419;BME280;45224;50.904;6.038;2023-04-05T02:38:21;100500.19;;;3.18;58.64
59419;BME280;45224;50.904;6.038;2023-04-05T02:39:52;100501.81;;;3.16;59.07
59419;BME280;45224;50.904;6.038;2023-04-05T02:41:22;100498.34;;;3.14;58.60
59419;BME280;45224;50.904;6.038;2023-04-05T02:42:53;100500.69;;;3.09;58.64
59419;BME280;45224;50.904;6.038;2023-04-05T02:44:23;100503.06;;;3.04;60.03
59419;BME280;45224;50.904;6.038;2023-04-05T02:45:57;100502.06;;;3.01;59.75
59419;BME280;45224;50.904;6.038;2023-04-05T02:47:27;100487.97;;;2.89;60.21
59419;BME280;45224;50.904;6.038;2023-04-05T02:49:01;100500.03;;;2.93;59.97
59419;BME280;45224;50.904;6.038;2023-04-05T02:50:33;100494.88;;;2.92;59.69
59419;BME280;45224;50.904;6.038;2023-04-05T02:52:04;100502.41;;;2.89;60.27
59419;BME280;45224;50.904;6.038;2023-04-05T02:53:35;100499.78;;;2.87;60.51
59419;BME280;45224;50.904;6.038;2023-04-05T02:55:09;100502.31;;;2.86;60.22
59419;BME280;45224;50.904;6.038;2023-04-05T02:56:40;100491.31;;;2.88;60.51
59419;BME280;45224;50.904;6.038;2023-04-05T02:58:16;100501.59;;;2.90;60.18
59419;BME280;45224;50.904;6.038;2023-04-05T02:59:50;100488.84;;;2.90;59.98
59419;BME280;45224;50.904;6.038;2023-04-05T03:01:21;100485.63;;;2.94;60.14
59419;BME280;45224;50.904;6.038;2023-04-05T03:02:52;100491.59;;;2.95;59.67
59419;BME280;45224;50.904;6.038;2023-04-05T03:04:22;100487.28;;;2.93;59.62
59419;BME280;45224;50.904;6.038;2023-04-05T03:05:58;100493.28;;;2.94;60.28
59419;BME280;45224;50.904;6.038;2023-04-05T03:07:39;100500.03;;;2.93;60.64
59419;BME280;45224;50.904;6.038;2023-04-05T03:09:14;100490.72;;;2.94;60.13
59419;BME280;45224;50.904;6.038;2023-04-05T03:10:45;100483.78;;;2.91;59.73
59419;BME280;45224;50.904;6.038;2023-04-05T03:12:19;100478.03;;;2.96;59.66
59419;BME280;45224;50.904;6.038;2023-04-05T03:13:50;100482.38;;;2.98;58.74
59419;BME280;45224;50.904;6.038;2023-04-05T03:15:40;100482.50;;;3.01;59.31
59419;BME280;45224;50.904;6.038;2023-04-05T03:17:15;100484.31;;;3.04;59.00
59419;BME280;45224;50.904;6.038;2023-04-05T03:18:50;100480.19;;;3.07;58.87
59419;BME280;45224;50.904;6.038;2023-04-05T03:20:21;100476.16;;;3.13;58.26
59419;BME280;45224;50.904;6.038;2023-04-05T03:21:52;100476.16;;;3.13;58.61
59419;BME280;45224;50.904;6.038;2023-04-05T03:23:31;100473.66;;;3.14;57.77
59419;BME280;45224;50.904;6.038;2023-04-05T03:25:04;100478.88;;;3.17;58.13
59419;BME280;45224;50.904;6.038;2023-04-05T03:26:35;100466.00;;;3.14;58.31
59419;BME280;45224;50.904;6.038;2023-04-05T03:28:07;100473.84;;;3.19;57.80
59419;BME280;45224;50.904;6.038;2023-04-05T03:29:42;100469.66;;;3.21;57.86
59419;BME280;45224;50.904;6.038;2023-04-05T03:31:19;100466.31;;;3.22;57.44
59419;BME280;45224;50.904;6.038;2023-04-05T03:32:52;100466.44;;;3.25;57.00
59419;BME280;45224;50.904;6.038;2023-04-05T03:34:42;100464.81;;;3.27;57.05
59419;BME280;45224;50.904;6.038;2023-04-05T03:36:15;100464.69;;;3.24;57.19
59419;BME280;45224;50.904;6.038;2023-04-05T03:37:47;100467.47;;;3.30;56.93
59419;BME280;45224;50.904;6.038;2023-04-05T03:39:18;100469.19;;;3.29;56.95
59419;BME280;45224;50.904;6.038;2023-04-05T03:40:48;100461.44;;;3.28;56.74
59419;BME280;45224;50.904;6.038;2023-04-05T03:42:19;100467.41;;;3.28;56.55
59419;BME280;45224;50.904;6.038;2023-04-05T03:43:49;100471.78;;;3.31;57.24
59419;BME280;45224;50.904;6.038;2023-04-05T03:45:25;100468.28;;;3.29;57.37
59419;BME280;45224;50.904;6.038;2023-04-05T03:46:56;100462.31;;;3.28;56.91
59419;BME280;45224;50.904;6.038;2023-04-05T03:48:27;100458.88;;;3.28;56.68
59419;BME280;45224;50.904;6.038;2023-04-05T03:49:57;100457.13;;;3.27;56.62
59419;BME280;45224;50.904;6.038;2023-04-05T03:51:28;100466.56;;;3.28;56.75
59419;BME280;45224;50.904;6.038;2023-04-05T03:52:58;100467.34;;;3.27;56.95
59419;BME280;45224;50.904;6.038;2023-04-05T03:54:29;100466.44;;;3.25;57.32
59419;BME280;45224;50.904;6.038;2023-04-05T03:56:01;100460.50;;;3.26;56.87
59419;BME280;45224;50.904;6.038;2023-04-05T03:57:51;100450.13;;;3.23;56.56
59419;BME280;45224;50.904;6.038;2023-04-05T03:59:37;100444.09;;;3.21;56.72
59419;BME280;45224;50.904;6.038;2023-04-05T04:01:10;100442.38;;;3.20;56.27
59419;BME280;45224;50.904;6.038;2023-04-05T04:04:12;100447.50;;;3.20;57.08
59419;BME280;45224;50.904;6.038;2023-04-05T04:05:45;100448.09;;;3.14;57.39
59419;BME280;45224;50.904;6.038;2023-04-05T04:07:15;100449.09;;;3.18;57.18
59419;BME280;45224;50.904;6.038;2023-04-05T04:08:46;100451.50;;;3.15;57.02
59419;BME280;45224;50.904;6.038;2023-04-05T04:10:16;100455.03;;;3.17;56.51
59419;BME280;45224;50.904;6.038;2023-04-05T04:11:49;100459.13;;;3.13;57.13
59419;BME280;45224;50.904;6.038;2023-04-05T04:13:23;100448.63;;;3.05;57.56
59419;BME280;45224;50.904;6.038;2023-04-05T04:15:03;100446.72;;;3.01;57.74
59419;BME280;45224;50.904;6.038;2023-04-05T04:16:54;100450.72;;;2.95;58.23
59419;BME280;45224;50.904;6.038;2023-04-05T04:18:51;100447.84;;;2.87;58.93
59419;BME280;45224;50.904;6.038;2023-04-05T04:20:49;100444.09;;;2.79;58.52
59419;BME280;45224;50.904;6.038;2023-04-05T04:22:49;100440.47;;;2.73;58.99
59419;BME280;45224;50.904;6.038;2023-04-05T04:24:43;100448.00;;;2.70;59.12
59419;BME280;45224;50.904;6.038;2023-04-05T04:26:34;100445.19;;;2.64;59.56
59419;BME280;45224;50.904;6.038;2023-04-05T04:28:19;100448.56;;;2.63;59.97
59419;BME280;45224;50.904;6.038;2023-04-05T04:30:12;100441.44;;;2.56;60.03
59419;BME280;45224;50.904;6.038;2023-04-05T04:32:01;100438.09;;;2.57;59.43
59419;BME280;45224;50.904;6.038;2023-04-05T04:33:48;100443.13;;;2.55;59.02
59419;BME280;45224;50.904;6.038;2023-04-05T04:35:36;100439.81;;;2.58;59.24
59419;BME280;45224;50.904;6.038;2023-04-05T04:37:28;100438.16;;;2.59;59.57
59419;BME280;45224;50.904;6.038;2023-04-05T04:39:34;100443.34;;;2.60;58.87
59419;BME280;45224;50.904;6.038;2023-04-05T04:41:23;100439.09;;;2.61;58.41
59419;BME280;45224;50.904;6.038;2023-04-05T04:43:13;100437.53;;;2.64;58.26
59419;BME280;45224;50.904;6.038;2023-04-05T04:45:17;100432.34;;;2.63;58.08
59419;BME280;45224;50.904;6.038;2023-04-05T04:47:11;100430.63;;;2.62;58.30
59419;BME280;45224;50.904;6.038;2023-04-05T04:49:05;100430.63;;;2.62;57.31
59419;BME280;45224;50.904;6.038;2023-04-05T04:50:35;100434.97;;;2.64;57.70
59419;BME280;45224;50.904;6.038;2023-04-05T04:52:06;100435.84;;;2.65;58.16
59419;BME280;45224;50.904;6.038;2023-04-05T04:53:40;100437.53;;;2.64;58.65
59419;BME280;45224;50.904;6.038;2023-04-05T04:55:11;100440.84;;;2.62;58.92
59419;BME280;45224;50.904;6.038;2023-04-05T04:56:43;100441.44;;;2.56;59.12
59419;BME280;45224;50.904;6.038;2023-04-05T04:58:13;100438.69;;;2.51;59.29
59419;BME280;45224;50.904;6.038;2023-04-05T04:59:48;100433.44;;;2.48;58.66
59419;BME280;45224;50.904;6.038;2023-04-05T05:01:18;100437.69;;;2.48;59.50
59419;BME280;45224;50.904;6.038;2023-04-05T05:02:52;100431.59;;;2.44;59.72
59419;BME280;45224;50.904;6.038;2023-04-05T05:04:22;100434.88;;;2.42;59.85
59419;BME280;45224;50.904;6.038;2023-04-05T05:05:53;100440.97;;;2.45;59.73
59419;BME280;45224;50.904;6.038;2023-04-05T05:07:27;100435.81;;;2.44;59.66
59419;BME280;45224;50.904;6.038;2023-04-05T05:08:58;100445.09;;;2.42;59.62
59419;BME280;45224;50.904;6.038;2023-04-05T05:10:29;100435.44;;;2.34;59.73
59419;BME280;45224;50.904;6.038;2023-04-05T05:12:05;100443.00;;;2.33;60.34
59419;BME280;45224;50.904;6.038;2023-04-05T05:13:36;100434.16;;;2.25;60.94
59419;BME280;45224;50.904;6.038;2023-04-05T05:15:07;100445.94;;;2.23;60.33
59419;BME280;45224;50.904;6.038;2023-04-05T05:16:37;100451.38;;;1.91;63.55
59419;BME280;45224;50.904;6.038;2023-04-05T05:18:08;100456.94;;;1.82;64.19
59419;BME280;45224;50.904;6.038;2023-04-05T05:19:40;100450.00;;;1.80;64.46
59419;BME280;45224;50.904;6.038;2023-04-05T05:21:10;100458.72;;;1.85;63.59
59419;BME280;45224;50.904;6.038;2023-04-05T05:22:40;100454.44;;;1.84;64.12
59419;BME280;45224;50.904;6.038;2023-04-05T05:24:11;100456.72;;;1.78;64.03
59419;BME280;45224;50.904;6.038;2023-04-05T05:25:43;100451.91;;;1.66;64.81
59419;BME280;45224;50.904;6.038;2023-04-05T05:27:14;100453.97;;;1.73;63.94
59419;BME280;45224;50.904;6.038;2023-04-05T05:28:44;100448.09;;;1.76;64.32
59419;BME280;45224;50.904;6.038;2023-04-05T05:30:16;100451.88;;;1.84;63.47
59419;BME280;45224;50.904;6.038;2023-04-05T05:31:47;100454.25;;;1.79;64.94
59419;BME280;45224;50.904;6.038;2023-04-05T05:33:18;100450.72;;;1.77;64.91
59419;BME280;45224;50.904;6.038;2023-04-05T05:34:48;100456.72;;;1.78;65.12
59419;BME280;45224;50.904;6.038;2023-04-05T05:36:19;100445.47;;;1.74;64.85
59419;BME280;45224;50.904;6.038;2023-04-05T05:37:49;100445.47;;;1.74;65.21
59419;BME280;45224;50.904;6.038;2023-04-05T05:39:20;100447.31;;;1.77;65.12
59419;BME280;45224;50.904;6.038;2023-04-05T05:40:55;100455.09;;;1.80;65.05
59419;BME280;45224;50.904;6.038;2023-04-05T05:42:26;100457.72;;;1.81;65.37
59419;BME280;45224;50.904;6.038;2023-04-05T05:43:57;100452.69;;;1.83;65.99
59419;BME280;45224;50.904;6.038;2023-04-05T05:45:27;100444.38;;;1.87;65.29
59419;BME280;45224;50.904;6.038;2023-04-05T05:46:58;100446.91;;;1.87;65.55
59419;BME280;45224;50.904;6.038;2023-04-05T05:48:28;100448.81;;;1.91;65.42
59419;BME280;45224;50.904;6.038;2023-04-05T05:49:58;100454.22;;;1.97;64.73
59419;BME280;45224;50.904;6.038;2023-04-05T05:51:29;100450.31;;;2.06;64.27
59419;BME280;45224;50.904;6.038;2023-04-05T05:53:01;100455.78;;;2.13;63.80
59419;BME280;45224;50.904;6.038;2023-04-05T05:54:31;100452.59;;;2.19;64.77
59419;BME280;45224;50.904;6.038;2023-04-05T05:56:02;100457.84;;;2.22;64.41
59419;BME280;45224;50.904;6.038;2023-04-05T05:57:33;100455.38;;;2.24;64.43
59419;BME280;45224;50.904;6.038;2023-04-05T05:59:03;100457.84;;;2.22;64.91
59419;BME280;45224;50.904;6.038;2023-04-05T06:00:33;100451.25;;;2.27;64.00
59419;BME280;45224;50.904;6.038;2023-04-05T06:02:05;100451.81;;;2.20;64.63
59419;BME280;45224;50.904;6.038;2023-04-05T06:03:36;100453.53;;;2.21;64.08
59419;BME280;45224;50.904;6.038;2023-04-05T06:05:07;100450.31;;;2.25;64.32
59419;BME280;45224;50.904;6.038;2023-04-05T06:06:38;100452.19;;;2.29;63.84
59419;BME280;45224;50.904;6.038;2023-04-05T06:08:09;100451.41;;;2.30;63.69
59419;BME280;45224;50.904;6.038;2023-04-05T06:09:40;100448.25;;;2.36;63.36
59419;BME280;45224;50.904;6.038;2023-04-05T06:11:18;100443.22;;;2.37;62.91
59419;BME280;45224;50.904;6.038;2023-04-05T06:12:49;100439.91;;;2.40;63.25
59419;BME280;45224;50.904;6.038;2023-04-05T06:14:20;100446.91;;;2.44;63.11
59419;BME280;45224;50.904;6.038;2023-04-05T06:15:50;100442.06;;;2.50;63.18
59419;BME280;45224;50.904;6.038;2023-04-05T06:17:21;100447.41;;;2.56;63.16
59419;BME280;45224;50.904;6.038;2023-04-05T06:18:51;100453.69;;;2.63;63.17
59419;BME280;45224;50.904;6.038;2023-04-05T06:20:24;100443.69;;;2.69;63.02
59419;BME280;45224;50.904;6.038;2023-04-05T06:21:55;100443.84;;;2.72;62.63
59419;BME280;45224;50.904;6.038;2023-04-05T06:23:25;100450.25;;;2.84;62.29
59419;BME280;45224;50.904;6.038;2023-04-05T06:24:56;100447.97;;;2.90;61.87
59419;BME280;45224;50.904;6.038;2023-04-05T06:26:26;100447.47;;;2.99;61.24
59419;BME280;45224;50.904;6.038;2023-04-05T06:27:59;100442.66;;;3.06;61.19
59419;BME280;45224;50.904;6.038;2023-04-05T06:29:29;100442.25;;;3.17;61.26
59419;BME280;45224;50.904;6.038;2023-04-05T06:31:00;100446.13;;;3.28;61.29
59419;BME280;45224;50.904;6.038;2023-04-05T06:32:30;100447.41;;;3.39;60.05
59419;BME280;45224;50.904;6.038;2023-04-05T06:34:01;100452.06;;;3.50;59.48
59419;BME280;45224;50.904;6.038;2023-04-05T06:35:32;100436.25;;;3.60;59.57
59419;BME280;45224;50.904;6.038;2023-04-05T06:37:02;100441.16;;;3.76;59.73
59419;BME280;45224;50.904;6.038;2023-04-05T06:38:33;100444.09;;;3.87;59.24
59419;BME280;45224;50.904;6.038;2023-04-05T06:40:03;100443.72;;;3.99;59.33
59419;BME280;45224;50.904;6.038;2023-04-05T06:41:34;100439.13;;;4.14;58.04
59419;BME280;45224;50.904;6.038;2023-04-05T06:43:05;100440.50;;;4.29;58.99
59419;BME280;45224;50.904;6.038;2023-04-05T06:44:36;100441.88;;;4.43;57.80
59419;BME280;45224;50.904;6.038;2023-04-05T06:46:06;100433.75;;;4.55;57.51
59419;BME280;45224;50.904;6.038;2023-04-05T06:47:40;100432.47;;;4.68;57.27
59419;BME280;45224;50.904;6.038;2023-04-05T06:49:11;100437.22;;;4.83;57.67
59419;BME280;45224;50.904;6.038;2023-04-05T06:50:41;100435.91;;;4.94;56.94
59419;BME280;45224;50.904;6.038;2023-04-05T06:52:12;100443.94;;;5.05;56.37
59419;BME280;45224;50.904;6.038;2023-04-05T06:53:42;100434.88;;;5.15;55.95
59419;BME280;45224;50.904;6.038;2023-04-05T06:55:13;100428.38;;;5.26;56.51
59419;BME280;45224;50.904;6.038;2023-04-05T06:56:43;100430.56;;;5.41;56.07
59419;BME280;45224;50.904;6.038;2023-04-05T06:58:14;100430.13;;;5.54;55.14
59419;BME280;45224;50.904;6.038;2023-04-05T06:59:44;100434.09;;;5.72;54.76
59419;BME280;45224;50.904;6.038;2023-04-05T07:01:15;100434.53;;;5.87;55.42
59419;BME280;45224;50.904;6.038;2023-04-05T07:02:46;100427.28;;;6.01;54.87
59419;BME280;45224;50.904;6.038;2023-04-05T07:04:17;100438.81;;;6.15;54.07
59419;BME280;45224;50.904;6.038;2023-04-05T07:05:55;100443.44;;;6.29;52.73
59419;BME280;45224;50.904;6.038;2023-04-05T07:07:26;100441.38;;;6.47;53.48
59419;BME280;45224;50.904;6.038;2023-04-05T07:08:57;100434.00;;;6.60;53.65
59419;BME280;45224;50.904;6.038;2023-04-05T07:10:27;100431.94;;;6.80;53.21
59419;BME280;45224;50.904;6.038;2023-04-05T07:11:58;100427.19;;;6.95;53.23
59419;BME280;45224;50.904;6.038;2023-04-05T07:13:30;100440.44;;;7.12;52.48
59419;BME280;45224;50.904;6.038;2023-04-05T07:15:01;100428.75;;;7.25;52.14
59419;BME280;45224;50.904;6.038;2023-04-05T07:16:31;100429.94;;;7.39;51.11
59419;BME280;45224;50.904;6.038;2023-04-05T07:18:02;100433.56;;;7.47;50.49
59419;BME280;45224;50.904;6.038;2023-04-05T07:19:33;100432.09;;;7.59;51.02
59419;BME280;45224;50.904;6.038;2023-04-05T07:21:03;100423.78;;;7.69;50.18
59419;BME280;45224;50.904;6.038;2023-04-05T07:22:34;100435.16;;;7.80;50.44
59419;BME280;45224;50.904;6.038;2023-04-05T07:24:05;100429.38;;;7.91;50.01
59419;BME280;45224;50.904;6.038;2023-04-05T07:25:38;100430.53;;;8.05;49.60
59419;BME280;45224;50.904;6.038;2023-04-05T07:27:09;100435.09;;;8.20;49.46
59419;BME280;45224;50.904;6.038;2023-04-05T07:28:40;100432.00;;;8.36;49.70
59419;BME280;45224;50.904;6.038;2023-04-05T07:30:11;100428.06;;;8.54;49.26
59419;BME280;45224;50.904;6.038;2023-04-05T07:31:41;100431.75;;;8.68;48.33
59419;BME280;45224;50.904;6.038;2023-04-05T07:33:12;100438.88;;;8.82;48.40
59419;BME280;45224;50.904;6.038;2023-04-05T07:34:42;100440.69;;;8.87;47.73
59419;BME280;45224;50.904;6.038;2023-04-05T07:36:13;100439.31;;;9.06;47.24
59419;BME280;45224;50.904;6.038;2023-04-05T07:37:43;100436.94;;;9.20;45.22
59419;BME280;45224;50.904;6.038;2023-04-05T07:39:14;100444.72;;;9.23;46.61
59419;BME280;45224;50.904;6.038;2023-04-05T07:40:47;100445.66;;;9.28;45.38
59419;BME280;45224;50.904;6.038;2023-04-05T07:42:17;100442.38;;;9.37;46.22
59419;BME280;45224;50.904;6.038;2023-04-05T07:43:50;100447.63;;;9.43;45.56
59419;BME280;45224;50.904;6.038;2023-04-05T07:45:21;100447.56;;;9.39;45.89
59419;BME280;45224;50.904;6.038;2023-04-05T07:46:51;100442.66;;;9.57;45.14
59419;BME280;45224;50.904;6.038;2023-04-05T07:48:21;100444.59;;;9.71;45.08
59419;BME280;45224;50.904;6.038;2023-04-05T07:49:52;100448.94;;;9.76;45.04
59419;BME280;45224;50.904;6.038;2023-04-05T07:51:23;100450.03;;;9.92;44.75
59419;BME280;45224;50.904;6.038;2023-04-05T07:52:54;100444.78;;;9.86;41.27
59419;BME280;45224;50.904;6.038;2023-04-05T07:54:24;100450.13;;;9.98;44.05
59419;BME280;45224;50.904;6.038;2023-04-05T07:55:55;100445.13;;;10.14;44.03
59419;BME280;45224;50.904;6.038;2023-04-05T07:57:26;100446.97;;;10.24;44.02
59419;BME280;45224;50.904;6.038;2023-04-05T07:58:57;100459.31;;;10.44;42.92
59419;BME280;45224;50.904;6.038;2023-04-05T08:00:28;100456.03;;;10.60;43.27
59419;BME280;45224;50.904;6.038;2023-04-05T08:01:58;100441.38;;;10.62;43.25
59419;BME280;45224;50.904;6.038;2023-04-05T08:03:31;100453.69;;;10.86;42.98
59419;BME280;45224;50.904;6.038;2023-04-05T08:05:02;100450.31;;;10.93;42.35
59419;BME280;45224;50.904;6.038;2023-04-05T08:06:33;100454.72;;;11.05;41.36
59419;BME280;45224;50.904;6.038;2023-04-05T08:08:03;100456.59;;;11.22;41.52
59419;BME280;45224;50.904;6.038;2023-04-05T08:09:35;100450.47;;;11.10;40.36
59419;BME280;45224;50.904;6.038;2023-04-05T08:11:05;100453.16;;;11.23;39.97
59419;BME280;45224;50.904;6.038;2023-04-05T08:12:36;100458.03;;;10.89;39.35
59419;BME280;45224;50.904;6.038;2023-04-05T08:14:06;100449.81;;;11.39;40.26
59419;BME280;45224;50.904;6.038;2023-04-05T08:15:37;100449.94;;;11.58;39.97
59419;BME280;45224;50.904;6.038;2023-04-05T08:17:07;100451.75;;;11.71;39.88
59419;BME280;45224;50.904;6.038;2023-04-05T08:18:38;100452.69;;;11.81;39.47
59419;BME280;45224;50.904;6.038;2023-04-05T08:20:08;100443.22;;;11.87;39.35
59419;BME280;45224;50.904;6.038;2023-04-05T08:21:39;100438.00;;;11.81;38.10